sensor_id;sensor_type;location;lat;lon;timestamp;pressure;altitude;pressure_sealevel;temperature;humidity
46886;BME280;32622;48.202;11.326;2023-05-15T00:01:57;1013.60;;;11.64;38.35
46886;BME280;32622;48.202;11.326;2023-05-15T00:04:01;1013.52;;;11.87;38.12
46886;BME280;32622;48.202;11.326;2023-05-15T00:06:05;1013.48;;;12.23;37.75
46886;BME280;32622;48.202;11.326;2023-05-15T00:08:08;1013.59;;;11.81;37.33
46886;BME280;32622;48.202;11.326;2023-05-15T00:10:12;1013.58;;;11.96;37.06
46886;BME280;32622;48.202;11.326;2023-05-15T00:12:17;1013.46;;;12.28;36.80
46886;BME280;32622;48.202;11.326;2023-05-15T00:14:21;1013.59;;;11.97;36.92
46886;BME280;32622;48.202;11.326;2023-05-15T00:16:25;1013.48;;;12.38;36.89
46886;BME280;32622;48.202;11.326;2023-05-15T00:18:30;1013.47;;;12.15;36.80
46886;BME280;32622;48.202;11.326;2023-05-15T00:20:38;1013.46;;;12.11;36.72
46886;BME280;32622;48.202;11.326;2023-05-15T00:22:44;1013.49;;;11.94;36.56
46886;BME280;32622;48.202;11.326;2023-05-15T00:24:48;1013.40;;;12.28;36.61
46886;BME280;32622;48.202;11.326;2023-05-15T00:26:55;1013.42;;;12.18;36.64
46886;BME280;32622;48.202;11.326;2023-05-15T00:28:59;1013.35;;;12.42;36.39
46886;BME280;32622;48.202;11.326;2023-05-15T00:31:03;1013.31;;;12.70;36.15
46886;BME280;32622;48.202;11.326;2023-05-15T00:33:07;1013.31;;;12.58;36.24
46886;BME280;32622;48.202;11.326;2023-05-15T00:35:11;1013.30;;;12.69;36.12
46886;BME280;32622;48.202;11.326;2023-05-15T00:37:14;1013.29;;;12.50;36.18
46886;BME280;32622;48.202;11.326;2023-05-15T00:39:18;1013.35;;;12.05;36.52
46886;BME280;32622;48.202;11.326;2023-05-15T00:41:22;1013.39;;;11.93;36.73
46886;BME280;32622;48.202;11.326;2023-05-15T00:43:27;1013.23;;;12.54;36.26
46886;BME280;32622;48.202;11.326;2023-05-15T00:45:40;1013.18;;;12.70;36.02
46886;BME280;32622;48.202;11.326;2023-05-15T00:47:45;1013.22;;;12.48;36.13
46886;BME280;32622;48.202;11.326;2023-05-15T00:49:52;1013.15;;;12.73;36.02
46886;BME280;32622;48.202;11.326;2023-05-15T00:51:59;1013.15;;;12.56;36.09
46886;BME280;32622;48.202;11.326;2023-05-15T00:54:04;1013.18;;;12.35;35.99
46886;BME280;32622;48.202;11.326;2023-05-15T00:56:12;1013.10;;;12.50;35.77
46886;BME280;32622;48.202;11.326;2023-05-15T00:58:16;1013.12;;;12.31;35.80
46886;BME280;32622;48.202;11.326;2023-05-15T01:00:24;1013.07;;;12.53;35.69
46886;BME280;32622;48.202;11.326;2023-05-15T01:02:31;1013.08;;;12.63;35.61
46886;BME280;32622;48.202;11.326;2023-05-15T01:04:42;1013.05;;;12.61;35.43
46886;BME280;32622;48.202;11.326;2023-05-15T01:06:48;1013.13;;;12.36;35.87
46886;BME280;32622;48.202;11.326;2023-05-15T01:08:58;1013.09;;;12.63;35.73
46886;BME280;32622;48.202;11.326;2023-05-15T01:11:05;1013.12;;;12.35;36.05
46886;BME280;32622;48.202;11.326;2023-05-15T01:13:10;1013.13;;;12.41;36.11
46886;BME280;32622;48.202;11.326;2023-05-15T01:15:16;1013.00;;;12.97;36.05
46886;BME280;32622;48.202;11.326;2023-05-15T01:17:19;1013.06;;;12.72;35.88
46886;BME280;32622;48.202;11.326;2023-05-15T01:19:23;1013.12;;;12.34;36.14
46886;BME280;32622;48.202;11.326;2023-05-15T01:21:44;1013.15;;;12.09;36.48
46886;BME280;32622;48.202;11.326;2023-05-15T01:24:03;1013.16;;;12.04;36.63
46886;BME280;32622;48.202;11.326;2023-05-15T01:26:30;1013.10;;;12.21;36.43
46886;BME280;32622;48.202;11.326;2023-05-15T01:28:41;1013.00;;;12.68;36.35
46886;BME280;32622;48.202;11.326;2023-05-15T01:30:50;1013.02;;;12.64;36.10
46886;BME280;32622;48.202;11.326;2023-05-15T01:33:02;1013.01;;;12.64;35.86
46886;BME280;32622;48.202;11.326;2023-05-15T01:35:13;1013.00;;;12.76;35.76
46886;BME280;32622;48.202;11.326;2023-05-15T01:37:24;1012.97;;;12.74;35.72
46886;BME280;32622;48.202;11.326;2023-05-15T01:39:33;1012.95;;;12.71;35.75
46886;BME280;32622;48.202;11.326;2023-05-15T01:41:45;1012.95;;;12.73;35.81
46886;BME280;32622;48.202;11.326;2023-05-15T01:43:58;1012.90;;;12.90;35.76
46886;BME280;32622;48.202;11.326;2023-05-15T01:46:04;1012.93;;;12.58;35.63
46886;BME280;32622;48.202;11.326;2023-05-15T01:48:08;1012.96;;;12.56;35.61
46886;BME280;32622;48.202;11.326;2023-05-15T01:50:16;1012.88;;;13.00;35.50
46886;BME280;32622;48.202;11.326;2023-05-15T01:52:25;1012.94;;;12.67;35.53
46886;BME280;32622;48.202;11.326;2023-05-15T01:54:31;1012.92;;;12.72;35.43
46886;BME280;32622;48.202;11.326;2023-05-15T01:56:36;1012.99;;;12.46;35.58
46886;BME280;32622;48.202;11.326;2023-05-15T01:58:40;1013.04;;;12.24;35.43
46886;BME280;32622;48.202;11.326;2023-05-15T02:00:46;1012.91;;;12.85;35.29
46886;BME280;32622;48.202;11.326;2023-05-15T02:02:55;1012.81;;;13.19;35.23
46886;BME280;32622;48.202;11.326;2023-05-15T02:05:01;1012.87;;;12.82;35.18
46886;BME280;32622;48.202;11.326;2023-05-15T02:07:06;1012.93;;;12.65;35.34
46886;BME280;32622;48.202;11.326;2023-05-15T02:09:10;1012.81;;;13.19;35.28
46886;BME280;32622;48.202;11.326;2023-05-15T02:11:14;1012.90;;;12.90;35.34
46886;BME280;32622;48.202;11.326;2023-05-15T02:13:18;1012.92;;;12.80;35.43
46886;BME280;32622;48.202;11.326;2023-05-15T02:15:24;1013.00;;;12.58;35.33
46886;BME280;32622;48.202;11.326;2023-05-15T02:17:30;1012.99;;;12.52;35.34
46886;BME280;32622;48.202;11.326;2023-05-15T02:19:34;1012.93;;;12.97;35.25
46886;BME280;32622;48.202;11.326;2023-05-15T02:21:38;1013.04;;;12.70;35.42
46886;BME280;32622;48.202;11.326;2023-05-15T02:23:41;1013.07;;;12.55;35.75
46886;BME280;32622;48.202;11.326;2023-05-15T02:25:53;1013.10;;;12.39;35.83
46886;BME280;32622;48.202;11.326;2023-05-15T02:28:04;1013.12;;;12.15;35.45
46886;BME280;32622;48.202;11.326;2023-05-15T02:30:21;1012.96;;;12.76;35.24
46886;BME280;32622;48.202;11.326;2023-05-15T02:32:36;1013.02;;;12.37;35.65
46886;BME280;32622;48.202;11.326;2023-05-15T02:34:46;1013.16;;;11.62;36.42
46886;BME280;32622;48.202;11.326;2023-05-15T02:36:56;1013.04;;;12.08;36.28
46886;BME280;32622;48.202;11.326;2023-05-15T02:39:02;1012.99;;;12.31;36.06
46886;BME280;32622;48.202;11.326;2023-05-15T02:41:07;1012.87;;;12.73;35.66
46886;BME280;32622;48.202;11.326;2023-05-15T02:43:12;1012.82;;;12.93;35.43
46886;BME280;32622;48.202;11.326;2023-05-15T02:45:17;1012.87;;;12.69;35.55
46886;BME280;32622;48.202;11.326;2023-05-15T02:47:22;1012.95;;;12.20;35.72
46886;BME280;32622;48.202;11.326;2023-05-15T02:49:25;1012.84;;;12.57;35.58
46886;BME280;32622;48.202;11.326;2023-05-15T02:51:29;1012.86;;;12.31;35.90
46886;BME280;32622;48.202;11.326;2023-05-15T02:53:38;1012.88;;;12.19;36.09
46886;BME280;32622;48.202;11.326;2023-05-15T02:55:43;1012.91;;;12.20;36.01
46886;BME280;32622;48.202;11.326;2023-05-15T02:57:46;1012.92;;;12.07;36.18
46886;BME280;32622;48.202;11.326;2023-05-15T02:59:52;1012.85;;;12.46;35.87
46886;BME280;32622;48.202;11.326;2023-05-15T03:01:57;1012.76;;;12.71;35.67
46886;BME280;32622;48.202;11.326;2023-05-15T03:04:03;1012.78;;;12.63;35.70
46886;BME280;32622;48.202;11.326;2023-05-15T03:06:09;1012.80;;;12.66;35.64
46886;BME280;32622;48.202;11.326;2023-05-15T03:08:13;1012.91;;;12.36;35.66
46886;BME280;32622;48.202;11.326;2023-05-15T03:10:18;1012.90;;;12.33;35.98
46886;BME280;32622;48.202;11.326;2023-05-15T03:12:21;1012.78;;;12.76;35.70
46886;BME280;32622;48.202;11.326;2023-05-15T03:14:25;1012.79;;;12.68;35.38
46886;BME280;32622;48.202;11.326;2023-05-15T03:16:36;1012.79;;;12.67;35.74
46886;BME280;32622;48.202;11.326;2023-05-15T03:18:41;1013.05;;;11.40;37.04
46886;BME280;32622;48.202;11.326;2023-05-15T03:20:53;1013.09;;;11.33;37.59
46886;BME280;32622;48.202;11.326;2023-05-15T03:23:07;1012.85;;;12.30;36.64
46886;BME280;32622;48.202;11.326;2023-05-15T03:40:41;1012.70;;;13.14;40.99
46886;BME280;32622;48.202;11.326;2023-05-15T03:43:04;1013.32;;;10.39;41.02
46886;BME280;32622;48.202;11.326;2023-05-15T03:53:32;1012.93;;;12.04;42.13
46886;BME280;32622;48.202;11.326;2023-05-15T03:55:36;1013.23;;;10.64;41.31
46886;BME280;32622;48.202;11.326;2023-05-15T03:57:40;1013.22;;;10.72;40.38
46886;BME280;32622;48.202;11.326;2023-05-15T03:59:43;1013.13;;;11.17;39.22
46886;BME280;32622;48.202;11.326;2023-05-15T04:01:47;1012.96;;;11.72;38.60
46886;BME280;32622;48.202;11.326;2023-05-15T04:03:51;1012.98;;;11.50;38.34
46886;BME280;32622;48.202;11.326;2023-05-15T04:05:54;1012.97;;;11.47;38.10
46886;BME280;32622;48.202;11.326;2023-05-15T04:07:58;1012.99;;;11.21;38.36
46886;BME280;32622;48.202;11.326;2023-05-15T04:10:03;1012.73;;;12.29;37.40
46886;BME280;32622;48.202;11.326;2023-05-15T04:12:07;1012.78;;;12.11;37.14
46886;BME280;32622;48.202;11.326;2023-05-15T04:14:10;1012.81;;;12.14;36.99
46886;BME280;32622;48.202;11.326;2023-05-15T04:16:14;1012.84;;;11.91;37.17
46886;BME280;32622;48.202;11.326;2023-05-15T04:18:17;1012.86;;;12.02;37.18
46886;BME280;32622;48.202;11.326;2023-05-15T04:20:22;1012.88;;;11.93;37.00
46886;BME280;32622;48.202;11.326;2023-05-15T04:22:31;1012.83;;;12.14;37.08
46886;BME280;32622;48.202;11.326;2023-05-15T04:24:34;1012.75;;;12.68;36.96
46886;BME280;32622;48.202;11.326;2023-05-15T04:26:38;1013.19;;;10.69;38.09
46886;BME280;32622;48.202;11.326;2023-05-15T04:28:41;1013.17;;;10.87;38.27
46886;BME280;32622;48.202;11.326;2023-05-15T04:30:44;1013.24;;;10.55;38.40
46886;BME280;32622;48.202;11.326;2023-05-15T04:33:11;1013.11;;;11.05;38.56
46886;BME280;32622;48.202;11.326;2023-05-15T04:36:12;1012.43;;;14.26;37.78
46886;BME280;32622;48.202;11.326;2023-05-15T04:38:16;1012.94;;;11.76;38.07
46886;BME280;32622;48.202;11.326;2023-05-15T04:40:21;1012.88;;;12.13;37.60
46886;BME280;32622;48.202;11.326;2023-05-15T04:42:26;1012.98;;;11.75;37.19
46886;BME280;32622;48.202;11.326;2023-05-15T04:44:30;1012.91;;;12.13;37.15
46886;BME280;32622;48.202;11.326;2023-05-15T04:46:39;1012.98;;;12.07;36.80
46886;BME280;32622;48.202;11.326;2023-05-15T04:52:10;1013.18;;;11.35;37.44
46886;BME280;32622;48.202;11.326;2023-05-15T04:54:14;1012.98;;;12.13;37.18
46886;BME280;32622;48.202;11.326;2023-05-15T04:59:01;1013.04;;;12.26;37.27
46886;BME280;32622;48.202;11.326;2023-05-15T05:01:10;1013.10;;;12.14;36.74
46886;BME280;32622;48.202;11.326;2023-05-15T05:03:16;1013.09;;;12.36;36.47
46886;BME280;32622;48.202;11.326;2023-05-15T05:05:22;1013.04;;;12.64;36.15
46886;BME280;32622;48.202;11.326;2023-05-15T05:07:30;1013.09;;;12.49;36.24
46886;BME280;32622;48.202;11.326;2023-05-15T05:09:35;1013.01;;;12.76;36.24
46886;BME280;32622;48.202;11.326;2023-05-15T05:11:40;1013.07;;;12.54;36.12
46886;BME280;32622;48.202;11.326;2023-05-15T05:13:45;1012.96;;;13.14;35.84
46886;BME280;32622;48.202;11.326;2023-05-15T05:18:45;1012.44;;;15.60;36.86
46886;BME280;32622;48.202;11.326;2023-05-15T05:21:56;1012.70;;;14.39;37.79
46886;BME280;32622;48.202;11.326;2023-05-15T05:36:25;1013.07;;;13.35;39.27
46886;BME280;32622;48.202;11.326;2023-05-15T06:20:53;1013.21;;;14.01;40.13
46886;BME280;32622;48.202;11.326;2023-05-15T06:23:00;1013.74;;;11.54;40.11
46886;BME280;32622;48.202;11.326;2023-05-15T06:25:11;1013.59;;;11.96;39.55
46886;BME280;32622;48.202;11.326;2023-05-15T06:27:38;1013.58;;;11.92;39.26
46886;BME280;32622;48.202;11.326;2023-05-15T06:29:46;1013.55;;;12.05;39.02
46886;BME280;32622;48.202;11.326;2023-05-15T06:31:55;1013.51;;;12.20;38.49
46886;BME280;32622;48.202;11.326;2023-05-15T06:34:00;1013.46;;;12.50;38.24
46886;BME280;32622;48.202;11.326;2023-05-15T06:36:06;1013.36;;;13.06;37.64
46886;BME280;32622;48.202;11.326;2023-05-15T06:38:12;1013.36;;;12.98;37.69
46886;BME280;32622;48.202;11.326;2023-05-15T07:11:29;1013.34;;;13.64;41.59
46886;BME280;32622;48.202;11.326;2023-05-15T08:30:37;1012.22;;;17.51;35.27
46886;BME280;32622;48.202;11.326;2023-05-15T08:33:06;1012.73;;;15.21;35.53
46886;BME280;32622;48.202;11.326;2023-05-15T08:35:13;1012.44;;;16.45;33.44
46886;BME280;32622;48.202;11.326;2023-05-15T08:42:17;1012.31;;;17.16;33.31
46886;BME280;32622;48.202;11.326;2023-05-15T08:44:23;1012.31;;;16.77;31.76
46886;BME280;32622;48.202;11.326;2023-05-15T08:46:31;1012.13;;;17.65;31.27
46886;BME280;32622;48.202;11.326;2023-05-15T08:48:39;1012.12;;;17.83;30.38
46886;BME280;32622;48.202;11.326;2023-05-15T08:50:49;1012.02;;;18.27;27.85
46886;BME280;32622;48.202;11.326;2023-05-15T08:56:35;1011.29;;;21.71;29.25
46886;BME280;32622;48.202;11.326;2023-05-15T08:58:45;1011.74;;;19.40;29.37
46886;BME280;32622;48.202;11.326;2023-05-15T09:00:51;1011.78;;;18.92;27.54
46886;BME280;32622;48.202;11.326;2023-05-15T09:02:59;1011.72;;;19.14;26.89
46886;BME280;32622;48.202;11.326;2023-05-15T09:05:06;1011.64;;;19.65;27.36
46886;BME280;32622;48.202;11.326;2023-05-15T09:08:33;1011.10;;;22.03;26.53
46886;BME280;32622;48.202;11.326;2023-05-15T09:11:59;1011.05;;;22.23;26.85
46886;BME280;32622;48.202;11.326;2023-05-15T09:15:58;1010.98;;;22.53;28.75
46886;BME280;32622;48.202;11.326;2023-05-15T09:18:07;1011.51;;;19.72;28.09
46886;BME280;32622;48.202;11.326;2023-05-15T09:34:50;1010.93;;;21.82;27.81
46886;BME280;32622;48.202;11.326;2023-05-15T09:38:16;1010.98;;;21.10;28.49
46886;BME280;32622;48.202;11.326;2023-05-15T09:53:12;1010.82;;;21.56;27.57
46886;BME280;32622;48.202;11.326;2023-05-15T09:55:53;1011.25;;;19.32;27.37
46886;BME280;32622;48.202;11.326;2023-05-15T09:58:06;1011.18;;;19.79;26.70
46886;BME280;32622;48.202;11.326;2023-05-15T10:00:12;1011.29;;;19.23;27.54
46886;BME280;32622;48.202;11.326;2023-05-15T10:02:23;1011.19;;;19.49;26.71
46886;BME280;32622;48.202;11.326;2023-05-15T10:04:34;1011.20;;;19.46;27.27
46886;BME280;32622;48.202;11.326;2023-05-15T10:06:48;1010.96;;;20.69;26.67
46886;BME280;32622;48.202;11.326;2023-05-15T10:08:53;1011.19;;;19.49;27.00
46886;BME280;32622;48.202;11.326;2023-05-15T10:10:59;1011.08;;;19.95;26.71
46886;BME280;32622;48.202;11.326;2023-05-15T10:47:42;1010.21;;;21.66;28.70
46886;BME280;32622;48.202;11.326;2023-05-15T10:49:46;1010.81;;;18.72;27.26
46886;BME280;32622;48.202;11.326;2023-05-15T10:52:00;1010.67;;;19.30;26.14
46886;BME280;32622;48.202;11.326;2023-05-15T10:55:04;1010.52;;;19.75;25.63
46886;BME280;32622;48.202;11.326;2023-05-15T10:57:28;1010.59;;;19.25;26.05
46886;BME280;32622;48.202;11.326;2023-05-15T11:15:24;1009.95;;;22.50;26.04
46886;BME280;32622;48.202;11.326;2023-05-15T11:17:31;1010.35;;;20.17;24.90
46886;BME280;32622;48.202;11.326;2023-05-15T11:19:54;1010.19;;;20.50;23.84
46886;BME280;32622;48.202;11.326;2023-05-15T11:34:52;1009.72;;;22.11;23.89
46886;BME280;32622;48.202;11.326;2023-05-15T11:37:01;1010.17;;;19.85;24.51
46886;BME280;32622;48.202;11.326;2023-05-15T11:39:12;1010.22;;;19.83;23.96
46886;BME280;32622;48.202;11.326;2023-05-15T11:41:18;1010.32;;;20.13;22.83
46886;BME280;32622;48.202;11.326;2023-05-15T11:43:24;1010.64;;;18.78;23.72
46886;BME280;32622;48.202;11.326;2023-05-15T11:45:29;1011.05;;;17.71;25.26
46886;BME280;32622;48.202;11.326;2023-05-15T11:47:34;1011.39;;;16.58;26.52
46886;BME280;32622;48.202;11.326;2023-05-15T11:49:40;1011.41;;;16.24;27.77
46886;BME280;32622;48.202;11.326;2023-05-15T11:51:47;1011.37;;;16.84;29.49
46886;BME280;32622;48.202;11.326;2023-05-15T11:53:53;1011.74;;;15.44;28.37
46886;BME280;32622;48.202;11.326;2023-05-15T11:56:01;1012.03;;;14.39;29.94
46886;BME280;32622;48.202;11.326;2023-05-15T11:58:13;1012.27;;;13.83;31.87
46886;BME280;32622;48.202;11.326;2023-05-15T12:00:17;1012.28;;;14.07;33.09
46886;BME280;32622;48.202;11.326;2023-05-15T12:02:26;1012.28;;;14.12;34.54
46886;BME280;32622;48.202;11.326;2023-05-15T12:04:34;1012.61;;;12.84;34.23
46886;BME280;32622;48.202;11.326;2023-05-15T12:06:39;1012.36;;;13.89;32.42
46886;BME280;32622;48.202;11.326;2023-05-15T12:08:49;1012.24;;;13.47;33.12
46886;BME280;32622;48.202;11.326;2023-05-15T12:10:58;1012.15;;;13.85;34.24
46886;BME280;32622;48.202;11.326;2023-05-15T12:13:06;1011.97;;;14.47;33.72
46886;BME280;32622;48.202;11.326;2023-05-15T12:15:11;1012.11;;;13.93;35.05
46886;BME280;32622;48.202;11.326;2023-05-15T12:17:18;1012.03;;;14.41;34.44
46886;BME280;32622;48.202;11.326;2023-05-15T12:19:29;1011.83;;;15.68;33.45
46886;BME280;32622;48.202;11.326;2023-05-15T12:21:35;1011.86;;;15.65;33.28
46886;BME280;32622;48.202;11.326;2023-05-15T12:23:39;1011.69;;;16.28;33.04
46886;BME280;32622;48.202;11.326;2023-05-15T12:25:46;1011.76;;;16.00;34.11
46886;BME280;32622;48.202;11.326;2023-05-15T12:27:52;1011.85;;;15.44;34.73
46886;BME280;32622;48.202;11.326;2023-05-15T12:29:57;1011.79;;;15.59;35.01
46886;BME280;32622;48.202;11.326;2023-05-15T12:32:07;1011.78;;;15.41;35.31
46886;BME280;32622;48.202;11.326;2023-05-15T12:34:11;1011.52;;;16.51;34.66
46886;BME280;32622;48.202;11.326;2023-05-15T12:36:22;1011.50;;;16.52;34.56
46886;BME280;32622;48.202;11.326;2023-05-15T12:38:37;1011.54;;;16.35;34.53
46886;BME280;32622;48.202;11.326;2023-05-15T12:40:43;1011.39;;;17.03;32.96
46886;BME280;32622;48.202;11.326;2023-05-15T12:42:51;1011.40;;;17.15;32.66
46886;BME280;32622;48.202;11.326;2023-05-15T12:45:12;1011.54;;;16.69;31.44
46886;BME280;32622;48.202;11.326;2023-05-15T12:47:41;1012.02;;;14.83;36.16
46886;BME280;32622;48.202;11.326;2023-05-15T12:49:54;1012.72;;;12.00;41.02
46886;BME280;32622;48.202;11.326;2023-05-15T12:51:58;1012.66;;;12.43;40.55
46886;BME280;32622;48.202;11.326;2023-05-15T12:54:17;1013.03;;;10.80;44.15
46886;BME280;32622;48.202;11.326;2023-05-15T12:56:28;1013.21;;;10.15;43.62
46886;BME280;32622;48.202;11.326;2023-05-15T12:58:31;1013.20;;;10.03;44.23
46886;BME280;32622;48.202;11.326;2023-05-15T13:00:36;1013.35;;;9.69;42.12
46886;BME280;32622;48.202;11.326;2023-05-15T13:02:43;1013.48;;;9.11;42.18
46886;BME280;32622;48.202;11.326;2023-05-15T13:04:47;1013.26;;;9.94;41.24
46886;BME280;32622;48.202;11.326;2023-05-15T13:06:50;1013.23;;;9.93;41.84
46886;BME280;32622;48.202;11.326;2023-05-15T13:08:56;1013.12;;;10.11;40.65
46886;BME280;32622;48.202;11.326;2023-05-15T13:11:00;1012.84;;;10.98;40.83
46886;BME280;32622;48.202;11.326;2023-05-15T13:13:05;1012.99;;;10.11;40.83
46886;BME280;32622;48.202;11.326;2023-05-15T13:15:23;1012.93;;;10.25;41.34
46886;BME280;32622;48.202;11.326;2023-05-15T13:17:29;1012.66;;;11.25;40.40
46886;BME280;32622;48.202;11.326;2023-05-15T13:19:43;1012.52;;;11.93;40.24
46886;BME280;32622;48.202;11.326;2023-05-15T13:21:48;1012.28;;;12.77;40.34
46886;BME280;32622;48.202;11.326;2023-05-15T13:23:52;1012.13;;;13.45;39.55
46886;BME280;32622;48.202;11.326;2023-05-15T13:25:55;1011.97;;;13.97;38.94
46886;BME280;32622;48.202;11.326;2023-05-15T13:28:02;1012.00;;;13.98;37.88
46886;BME280;32622;48.202;11.326;2023-05-15T13:30:09;1012.07;;;13.71;37.24
46886;BME280;32622;48.202;11.326;2023-05-15T13:32:13;1011.90;;;14.43;36.28
46886;BME280;32622;48.202;11.326;2023-05-15T13:34:18;1011.92;;;14.53;33.97
46886;BME280;32622;48.202;11.326;2023-05-15T13:36:22;1011.86;;;14.97;32.98
46886;BME280;32622;48.202;11.326;2023-05-15T13:38:29;1011.99;;;14.44;30.61
46886;BME280;32622;48.202;11.326;2023-05-15T13:40:33;1011.87;;;15.21;32.27
46886;BME280;32622;48.202;11.326;2023-05-15T13:42:39;1012.16;;;13.93;33.49
46886;BME280;32622;48.202;11.326;2023-05-15T13:44:45;1011.84;;;15.52;32.95
46886;BME280;32622;48.202;11.326;2023-05-15T13:46:52;1011.86;;;15.45;32.72
46886;BME280;32622;48.202;11.326;2023-05-15T13:48:59;1011.80;;;16.00;32.56
46886;BME280;32622;48.202;11.326;2023-05-15T13:51:04;1011.79;;;16.32;31.52
46886;BME280;32622;48.202;11.326;2023-05-15T13:53:10;1011.88;;;16.12;32.31
46886;BME280;32622;48.202;11.326;2023-05-15T13:55:20;1011.94;;;16.22;30.89
46886;BME280;32622;48.202;11.326;2023-05-15T13:57:31;1012.47;;;15.02;30.83
46886;BME280;32622;48.202;11.326;2023-05-15T13:59:38;1012.38;;;15.53;32.21
46886;BME280;32622;48.202;11.326;2023-05-15T14:02:15;1012.49;;;15.31;31.94
46886;BME280;32622;48.202;11.326;2023-05-15T14:07:22;1012.04;;;17.56;34.54
46886;BME280;32622;48.202;11.326;2023-05-15T14:09:39;1012.57;;;15.14;35.13
46886;BME280;32622;48.202;11.326;2023-05-15T14:11:44;1012.74;;;14.52;34.82
46886;BME280;32622;48.202;11.326;2023-05-15T14:13:50;1012.81;;;14.39;34.17
46886;BME280;32622;48.202;11.326;2023-05-15T14:15:57;1012.73;;;14.75;33.89
46886;BME280;32622;48.202;11.326;2023-05-15T14:18:08;1012.64;;;15.16;32.77
46886;BME280;32622;48.202;11.326;2023-05-15T14:23:12;1012.77;;;14.41;33.14
46886;BME280;32622;48.202;11.326;2023-05-15T14:25:39;1012.64;;;15.11;33.61
46886;BME280;32622;48.202;11.326;2023-05-15T14:31:14;1012.34;;;16.87;34.96
46886;BME280;32622;48.202;11.326;2023-05-15T14:35:23;1012.41;;;16.83;35.70
46886;BME280;32622;48.202;11.326;2023-05-15T14:38:14;1012.52;;;16.34;36.01
46886;BME280;32622;48.202;11.326;2023-05-15T14:45:48;1012.24;;;17.46;35.99
46886;BME280;32622;48.202;11.326;2023-05-15T14:47:53;1012.91;;;14.00;38.06
46886;BME280;32622;48.202;11.326;2023-05-15T15:34:44;1012.04;;;16.71;38.44
46886;BME280;32622;48.202;11.326;2023-05-15T15:36:50;1012.34;;;15.10;37.64
46886;BME280;32622;48.202;11.326;2023-05-15T15:39:06;1012.23;;;15.68;37.14
46886;BME280;32622;48.202;11.326;2023-05-15T15:41:11;1012.10;;;16.26;36.73
46886;BME280;32622;48.202;11.326;2023-05-15T15:43:14;1012.10;;;16.10;36.39
46886;BME280;32622;48.202;11.326;2023-05-15T15:45:18;1012.17;;;15.95;35.13
46886;BME280;32622;48.202;11.326;2023-05-15T15:47:21;1012.18;;;15.90;35.54
46886;BME280;32622;48.202;11.326;2023-05-15T15:49:35;1012.28;;;15.62;36.24
46886;BME280;32622;48.202;11.326;2023-05-15T15:51:39;1012.21;;;15.67;35.14
46886;BME280;32622;48.202;11.326;2023-05-15T15:56:27;1011.47;;;18.71;35.22
46886;BME280;32622;48.202;11.326;2023-05-15T15:58:34;1012.13;;;15.83;35.31
46886;BME280;32622;48.202;11.326;2023-05-15T16:00:59;1012.10;;;15.94;34.27
46886;BME280;32622;48.202;11.326;2023-05-15T16:36:20;1012.05;;;17.90;35.39
46886;BME280;32622;48.202;11.326;2023-05-15T16:40:29;1012.00;;;18.52;34.29
46886;BME280;32622;48.202;11.326;2023-05-15T16:42:38;1012.84;;;14.53;33.83
46886;BME280;32622;48.202;11.326;2023-05-15T16:44:44;1012.77;;;14.74;33.82
46886;BME280;32622;48.202;11.326;2023-05-15T16:46:49;1012.66;;;15.57;33.04
46886;BME280;32622;48.202;11.326;2023-05-15T16:48:59;1012.56;;;16.02;32.53
46886;BME280;32622;48.202;11.326;2023-05-15T16:51:05;1012.61;;;15.94;32.57
46886;BME280;32622;48.202;11.326;2023-05-15T16:53:24;1012.78;;;15.42;32.25
46886;BME280;32622;48.202;11.326;2023-05-15T16:55:29;1012.67;;;16.18;31.99
46886;BME280;32622;48.202;11.326;2023-05-15T16:57:38;1012.66;;;16.29;31.59
46886;BME280;32622;48.202;11.326;2023-05-15T16:59:49;1012.69;;;16.41;31.67
46886;BME280;32622;48.202;11.326;2023-05-15T17:01:56;1012.62;;;16.76;31.47
46886;BME280;32622;48.202;11.326;2023-05-15T17:04:03;1012.84;;;15.88;31.03
46886;BME280;32622;48.202;11.326;2023-05-15T17:08:56;1012.54;;;16.86;30.69
46886;BME280;32622;48.202;11.326;2023-05-15T17:12:09;1012.16;;;18.62;30.99
46886;BME280;32622;48.202;11.326;2023-05-15T17:14:54;1012.78;;;16.02;31.77
46886;BME280;32622;48.202;11.326;2023-05-15T17:17:00;1012.71;;;16.33;30.93
46886;BME280;32622;48.202;11.326;2023-05-15T17:19:07;1012.82;;;15.80;31.41
46886;BME280;32622;48.202;11.326;2023-05-15T17:25:59;1012.45;;;17.44;32.04
46886;BME280;32622;48.202;11.326;2023-05-15T17:28:04;1012.92;;;15.33;33.05
46886;BME280;32622;48.202;11.326;2023-05-15T17:30:16;1012.95;;;15.30;32.37
46886;BME280;32622;48.202;11.326;2023-05-15T17:32:21;1012.95;;;15.10;32.28
46886;BME280;32622;48.202;11.326;2023-05-15T17:34:26;1012.82;;;15.58;31.96
46886;BME280;32622;48.202;11.326;2023-05-15T17:36:30;1012.82;;;15.61;31.54
46886;BME280;32622;48.202;11.326;2023-05-15T17:38:34;1012.98;;;15.05;31.88
46886;BME280;32622;48.202;11.326;2023-05-15T17:40:39;1012.97;;;15.16;31.74
46886;BME280;32622;48.202;11.326;2023-05-15T17:42:43;1012.83;;;15.84;31.87
46886;BME280;32622;48.202;11.326;2023-05-15T17:44:56;1012.97;;;15.28;31.87
46886;BME280;32622;48.202;11.326;2023-05-15T17:47:01;1012.93;;;15.54;31.74
46886;BME280;32622;48.202;11.326;2023-05-15T17:49:15;1013.09;;;14.93;31.89
46886;BME280;32622;48.202;11.326;2023-05-15T17:51:20;1013.07;;;15.11;31.98
46886;BME280;32622;48.202;11.326;2023-05-15T17:53:27;1013.01;;;15.38;31.91
46886;BME280;32622;48.202;11.326;2023-05-15T17:55:31;1012.99;;;15.50;31.95
46886;BME280;32622;48.202;11.326;2023-05-15T17:57:41;1013.01;;;15.41;32.46
46886;BME280;32622;48.202;11.326;2023-05-15T17:59:45;1013.05;;;15.35;32.38
46886;BME280;32622;48.202;11.326;2023-05-15T18:01:49;1013.03;;;15.51;32.41
46886;BME280;32622;48.202;11.326;2023-05-15T18:03:53;1013.02;;;15.66;32.41
46886;BME280;32622;48.202;11.326;2023-05-15T18:06:00;1012.99;;;15.89;32.15
46886;BME280;32622;48.202;11.326;2023-05-15T18:08:04;1013.04;;;15.55;32.28
46886;BME280;32622;48.202;11.326;2023-05-15T18:10:08;1012.94;;;16.06;32.24